メインページ
METAR-TAF:

METAR-TAF

空港 :

ゲシュム島, イラン

緯度: 26-45-18N, 経度: 055-54-08E, 海抜: 12m

現時点の気象観測

当レポートは23分前の18:00(UTC)に作成
東/北東の風 8kt
気温 23°C
湿度 61%
気圧 1018 hPa
視程10km以上
1,500メートル以下は雲なし、積乱雲なし

METAR: OIKQ 171800Z 06008KT CAVOK 23/15 Q1018

時間: 21:53 (18:23 UTC)


TAF: 見つかりません

4,000以上の空港の気象観測と天気予報(METAR報とTAF報)

利用可能な観測所は地図上に黄色い丸と赤い丸で示す。

丸の上にカーソルを重ねると観測所名を参照できる。

次にクリックすると気象観測と天気予報を参照できる。

マップの切り替え:黒色「×」印の緑ボタンをクリックして拡大、「-」印の緑ボタンをクリックして縮小、緑色の三角印をクリックして隣りの地図に切り替え


METAR-TAF: